This is the latest recevied weather packets stored in our database for station/object KD4WXI. If no packets are shown the sender has not sent any weather packets the latest 10 day(s).
| Time | Temp. | Humidity | Pressure | Rain* | Wind** | Luminosity | Snow |
|---|---|---|---|---|---|---|---|
| 1778085796 | 20.56° C | 77% | 1015.4 hPa | 0 mm | - | 91 W/m² | - |
| 1778085493 | 21.11° C | 75% | 1015.2 hPa | 0 mm | - | 220 W/m² | - |
| 1778085188 | 21.11° C | 74% | 1014.9 hPa | 0 mm | - | 139 W/m² | - |
| 1778084884 | 21.67° C | 71% | 1015.1 hPa | 0 mm | - | 117 W/m² | - |
| 1778084582 | 21.67° C | 70% | 1015.2 hPa | 0 mm | - | 120 W/m² | - |
| 1778084279 | 21.67° C | 69% | 1015 hPa | 0 mm | - | 127 W/m² | - |
| 1778083976 | 21.67° C | 70% | 1015.1 hPa | 0 mm | - | 128 W/m² | - |
| 1778083674 | 21.67° C | 69% | 1014.6 hPa | 0 mm | - | 129 W/m² | - |
| 1778083370 | 21.67° C | 68% | 1014.7 hPa | 0 mm | - | 135 W/m² | - |
| 1778083069 | 21.67° C | 68% | 1014.6 hPa | 0 mm | - | 174 W/m² | - |
| 1778082766 | 21.11° C | 68% | 1014.8 hPa | 0 mm | - | 173 W/m² | - |
| 1778081633 | 21.11° C | 72% | 1014.2 hPa | 0 mm | - | 178 W/m² | - |
| 1778081329 | 20.56° C | 72% | 1014 hPa | 0 mm | - | 223 W/m² | - |
| 1778081026 | 20° C | 74% | 1014 hPa | 0 mm | - | 197 W/m² | - |
| 1778080725 | 20° C | 74% | 1013.8 hPa | 0 mm | - | 149 W/m² | - |
| 1778080421 | 20° C | 75% | 1013.7 hPa | 0 mm | - | 138 W/m² | - |
| 1778080119 | 19.44° C | 76% | 1014 hPa | 0 mm | - | 125 W/m² | - |
| 1778079815 | 19.44° C | 77% | 1014.1 hPa | 0 mm | - | 120 W/m² | - |
| 1778079512 | 19.44° C | 76% | 1013.8 hPa | 0 mm | - | 89 W/m² | - |
| 1778079208 | 19.44° C | 76% | 1014 hPa | 0 mm | - | 74 W/m² | - |
| 1778078906 | 19.44° C | 76% | 1014.2 hPa | 0 mm | - | 107 W/m² | - |
| 1778078602 | 18.89° C | 77% | 1014.3 hPa | 0 mm | - | 123 W/m² | - |
| 1778078301 | 18.89° C | 77% | 1014.1 hPa | 0 mm | - | 96 W/m² | - |
| 1778077998 | 18.89° C | 77% | 1014.3 hPa | 0 mm | - | 66 W/m² | - |
| 1778077696 | 18.89° C | 77% | 1014.3 hPa | 0 mm | - | 71 W/m² | - |
* Rain latest hour (hover to see other rain measurements)
** Current wind speed in m/s (hover to see current wind gust speed)